sensor_id;sensor_type;location;lat;lon;timestamp;pressure;altitude;pressure_sealevel;temperature;humidity
24746;BME280;12845;52.042;6.838;2023-06-26T00:01:13;-18695.06;;;24.90;100.00
24746;BME280;12845;52.042;6.838;2023-06-26T00:03:38;-18693.16;;;24.83;100.00
24746;BME280;12845;52.042;6.838;2023-06-26T00:06:04;-18693.16;;;24.83;100.00
24746;BME280;12845;52.042;6.838;2023-06-26T00:08:29;-18689.78;;;24.70;100.00
24746;BME280;12845;52.042;6.838;2023-06-26T00:10:55;-18691.25;;;24.76;100.00
24746;BME280;12845;52.042;6.838;2023-06-26T00:13:21;-18685.84;;;24.56;100.00
24746;BME280;12845;52.042;6.838;2023-06-26T00:15:47;-18688.97;;;24.67;100.00
24746;BME280;12845;52.042;6.838;2023-06-26T00:18:12;-18689.91;;;24.71;100.00
24746;BME280;12845;52.042;6.838;2023-06-26T00:20:37;-18689.78;;;24.70;100.00
24746;BME280;12845;52.042;6.838;2023-06-26T00:23:03;-18688.81;;;24.67;100.00
24746;BME280;12845;52.042;6.838;2023-06-26T00:25:32;-18685.03;;;24.52;100.00
24746;BME280;12845;52.042;6.838;2023-06-26T00:27:58;-18687.34;;;24.61;100.00
24746;BME280;12845;52.042;6.838;2023-06-26T00:30:23;-18678.94;;;24.29;100.00
24746;BME280;12845;52.042;6.838;2023-06-26T00:32:48;-18681.09;;;24.38;100.00
24746;BME280;12845;52.042;6.838;2023-06-26T00:35:14;-18683.94;;;24.48;100.00
24746;BME280;12845;52.042;6.838;2023-06-26T00:37:39;-18688.56;;;24.66;100.00
24746;BME280;12845;52.042;6.838;2023-06-26T00:40:05;-18692.63;;;24.81;100.00
24746;BME280;12845;52.042;6.838;2023-06-26T00:42:30;-18693.16;;;24.83;100.00
24746;BME280;12845;52.042;6.838;2023-06-26T00:44:56;-18697.34;;;24.99;100.00
24746;BME280;12845;52.042;6.838;2023-06-26T00:47:21;-18695.59;;;24.92;100.00
24746;BME280;12845;52.042;6.838;2023-06-26T00:49:47;-18693.56;;;24.85;100.00
24746;BME280;12845;52.042;6.838;2023-06-26T00:52:13;-18698.44;;;25.03;100.00
24746;BME280;12845;52.042;6.838;2023-06-26T00:54:38;-18694.25;;;24.87;100.00
24746;BME280;12845;52.042;6.838;2023-06-26T00:57:04;-18692.63;;;24.81;100.00
24746;BME280;12845;52.042;6.838;2023-06-26T00:59:30;-18698.44;;;25.03;100.00
24746;BME280;12845;52.042;6.838;2023-06-26T01:01:55;-18697.34;;;24.99;100.00
24746;BME280;12845;52.042;6.838;2023-06-26T01:04:21;-18694.25;;;24.87;100.00
24746;BME280;12845;52.042;6.838;2023-06-26T01:06:47;-18691.13;;;24.75;100.00
24746;BME280;12845;52.042;6.838;2023-06-26T01:09:16;-18693.69;;;24.85;100.00
24746;BME280;12845;52.042;6.838;2023-06-26T01:11:42;-18696.28;;;24.95;100.00
24746;BME280;12845;52.042;6.838;2023-06-26T01:14:07;-18694.78;;;24.89;100.00
24746;BME280;12845;52.042;6.838;2023-06-26T01:16:35;-18694.78;;;24.89;100.00
24746;BME280;12845;52.042;6.838;2023-06-26T01:19:01;-18695.06;;;24.90;100.00
24746;BME280;12845;52.042;6.838;2023-06-26T01:21:27;-18699.38;;;25.07;100.00
24746;BME280;12845;52.042;6.838;2023-06-26T01:26:30;-18704.13;;;25.25;100.00
24746;BME280;12845;52.042;6.838;2023-06-26T01:29:01;-18703.59;;;25.23;100.00
24746;BME280;12845;52.042;6.838;2023-06-26T01:31:28;-18707.09;;;25.36;100.00
24746;BME280;12845;52.042;6.838;2023-06-26T01:33:57;-18706.16;;;25.32;100.00
24746;BME280;12845;52.042;6.838;2023-06-26T01:36:24;-18707.09;;;25.36;100.00
24746;BME280;12845;52.042;6.838;2023-06-26T01:38:49;-18710.75;;;25.50;100.00
24746;BME280;12845;52.042;6.838;2023-06-26T01:41:16;-18714.56;;;25.64;100.00
24746;BME280;12845;52.042;6.838;2023-06-26T01:46:23;-18710.22;;;25.48;100.00
24746;BME280;12845;52.042;6.838;2023-06-26T01:48:56;-18710.22;;;25.48;100.00
24746;BME280;12845;52.042;6.838;2023-06-26T01:51:30;-18709.94;;;25.47;100.00
24746;BME280;12845;52.042;6.838;2023-06-26T01:53:58;-18712.09;;;25.55;100.00
24746;BME280;12845;52.042;6.838;2023-06-26T01:56:25;-18708.72;;;25.42;100.00
24746;BME280;12845;52.042;6.838;2023-06-26T01:58:53;-18705.34;;;25.29;100.00
24746;BME280;12845;52.042;6.838;2023-06-26T02:01:20;-18705.34;;;25.29;100.00
24746;BME280;12845;52.042;6.838;2023-06-26T02:03:45;-18706.69;;;25.34;100.00
24746;BME280;12845;52.042;6.838;2023-06-26T02:06:11;-18709.41;;;25.44;100.00
24746;BME280;12845;52.042;6.838;2023-06-26T02:08:36;-18706.16;;;25.32;100.00
24746;BME280;12845;52.042;6.838;2023-06-26T02:11:01;-18708.31;;;25.40;100.00
24746;BME280;12845;52.042;6.838;2023-06-26T02:13:27;-18704.53;;;25.26;100.00
24746;BME280;12845;52.042;6.838;2023-06-26T02:15:52;-18703.59;;;25.23;100.00
24746;BME280;12845;52.042;6.838;2023-06-26T02:18:17;-18708.31;;;25.40;98.22
24746;BME280;12845;52.042;6.838;2023-06-26T02:20:43;-18710.75;;;25.50;97.57
24746;BME280;12845;52.042;6.838;2023-06-26T02:23:09;-18712.38;;;25.56;96.16
24746;BME280;12845;52.042;6.838;2023-06-26T02:25:34;-18709.41;;;25.44;96.82
24746;BME280;12845;52.042;6.838;2023-06-26T02:28:00;-18706.16;;;25.32;99.40
24746;BME280;12845;52.042;6.838;2023-06-26T02:30:25;-18709.13;;;25.43;97.98
24746;BME280;12845;52.042;6.838;2023-06-26T02:32:50;-18710.22;;;25.48;96.36
24746;BME280;12845;52.042;6.838;2023-06-26T02:35:16;-18709.13;;;25.43;97.38
24746;BME280;12845;52.042;6.838;2023-06-26T02:37:41;-18708.47;;;25.41;97.33
24746;BME280;12845;52.042;6.838;2023-06-26T02:40:07;-18708.59;;;25.41;97.46
24746;BME280;12845;52.042;6.838;2023-06-26T02:42:34;-18707.91;;;25.39;97.25
24746;BME280;12845;52.042;6.838;2023-06-26T02:45:00;-18710.50;;;25.49;96.61
24746;BME280;12845;52.042;6.838;2023-06-26T02:47:25;-18704.25;;;25.25;97.85
24746;BME280;12845;52.042;6.838;2023-06-26T02:49:50;-18705.75;;;25.31;98.50
24746;BME280;12845;52.042;6.838;2023-06-26T02:52:16;-18704.81;;;25.27;98.59
24746;BME280;12845;52.042;6.838;2023-06-26T02:54:41;-18700.47;;;25.11;100.00
24746;BME280;12845;52.042;6.838;2023-06-26T02:57:06;-18698.03;;;25.02;100.00
24746;BME280;12845;52.042;6.838;2023-06-26T02:59:32;-18700.75;;;25.12;100.00
24746;BME280;12845;52.042;6.838;2023-06-26T03:01:57;-18702.38;;;25.18;100.00
24746;BME280;12845;52.042;6.838;2023-06-26T03:04:23;-18702.63;;;25.19;99.01
24746;BME280;12845;52.042;6.838;2023-06-26T03:06:48;-18704.53;;;25.26;97.48
24746;BME280;12845;52.042;6.838;2023-06-26T03:09:13;-18705.06;;;25.28;97.80
24746;BME280;12845;52.042;6.838;2023-06-26T03:11:39;-18705.34;;;25.29;97.27
24746;BME280;12845;52.042;6.838;2023-06-26T03:14:04;-18706.03;;;25.32;96.41
24746;BME280;12845;52.042;6.838;2023-06-26T03:16:30;-18704.00;;;25.24;97.72
24746;BME280;12845;52.042;6.838;2023-06-26T03:18:56;-18701.28;;;25.14;98.94
24746;BME280;12845;52.042;6.838;2023-06-26T03:21:21;-18701.69;;;25.15;98.79
24746;BME280;12845;52.042;6.838;2023-06-26T03:23:47;-18703.31;;;25.21;98.38
24746;BME280;12845;52.042;6.838;2023-06-26T03:26:12;-18702.50;;;25.18;98.85
24746;BME280;12845;52.042;6.838;2023-06-26T03:28:39;-18703.19;;;25.21;99.19
24746;BME280;12845;52.042;6.838;2023-06-26T03:31:05;-18702.63;;;25.19;99.43
24746;BME280;12845;52.042;6.838;2023-06-26T03:33:30;-18706.03;;;25.32;98.66
24746;BME280;12845;52.042;6.838;2023-06-26T03:35:55;-18702.38;;;25.18;99.98
24746;BME280;12845;52.042;6.838;2023-06-26T03:38:22;-18701.41;;;25.14;100.00
24746;BME280;12845;52.042;6.838;2023-06-26T03:40:47;-18701.56;;;25.15;100.00
24746;BME280;12845;52.042;6.838;2023-06-26T03:43:13;-18700.88;;;25.12;100.00
24746;BME280;12845;52.042;6.838;2023-06-26T03:45:38;-18703.72;;;25.23;100.00
24746;BME280;12845;52.042;6.838;2023-06-26T03:48:03;-18701.00;;;25.13;100.00
24746;BME280;12845;52.042;6.838;2023-06-26T03:50:29;-18703.31;;;25.21;100.00
24746;BME280;12845;52.042;6.838;2023-06-26T03:52:54;-18701.56;;;25.15;100.00
24746;BME280;12845;52.042;6.838;2023-06-26T03:55:20;-18703.72;;;25.23;100.00
24746;BME280;12845;52.042;6.838;2023-06-26T03:57:47;-18705.22;;;25.29;100.00
24746;BME280;12845;52.042;6.838;2023-06-26T04:00:13;-18705.06;;;25.28;100.00
24746;BME280;12845;52.042;6.838;2023-06-26T04:02:39;-18703.06;;;25.20;100.00
24746;BME280;12845;52.042;6.838;2023-06-26T04:05:05;-18702.63;;;25.19;100.00
24746;BME280;12845;52.042;6.838;2023-06-26T04:07:30;-18699.66;;;25.08;100.00
24746;BME280;12845;52.042;6.838;2023-06-26T04:09:57;-18697.75;;;25.01;100.00
24746;BME280;12845;52.042;6.838;2023-06-26T04:12:22;-18702.09;;;25.17;100.00
24746;BME280;12845;52.042;6.838;2023-06-26T04:14:47;-18700.06;;;25.09;100.00
24746;BME280;12845;52.042;6.838;2023-06-26T04:17:13;-18700.34;;;25.10;100.00
24746;BME280;12845;52.042;6.838;2023-06-26T04:19:38;-18704.94;;;25.28;100.00
24746;BME280;12845;52.042;6.838;2023-06-26T04:22:03;-18696.28;;;24.95;100.00
24746;BME280;12845;52.042;6.838;2023-06-26T04:24:29;-18695.88;;;24.93;100.00
24746;BME280;12845;52.042;6.838;2023-06-26T04:26:54;-18692.88;;;24.82;100.00
24746;BME280;12845;52.042;6.838;2023-06-26T04:29:22;-18695.31;;;24.91;100.00
24746;BME280;12845;52.042;6.838;2023-06-26T04:31:53;-18689.91;;;24.71;100.00
24746;BME280;12845;52.042;6.838;2023-06-26T04:34:27;-18686.66;;;24.59;100.00
24746;BME280;12845;52.042;6.838;2023-06-26T04:36:52;-18686.25;;;24.57;100.00
24746;BME280;12845;52.042;6.838;2023-06-26T04:39:18;-18687.34;;;24.61;100.00
24746;BME280;12845;52.042;6.838;2023-06-26T04:41:46;-18690.44;;;24.73;100.00
24746;BME280;12845;52.042;6.838;2023-06-26T04:44:12;-18688.81;;;24.67;100.00
24746;BME280;12845;52.042;6.838;2023-06-26T04:46:38;-18692.63;;;24.81;100.00
24746;BME280;12845;52.042;6.838;2023-06-26T04:49:09;-18690.84;;;24.74;100.00
24746;BME280;12845;52.042;6.838;2023-06-26T04:51:35;-18698.16;;;25.02;100.00
24746;BME280;12845;52.042;6.838;2023-06-26T04:54:09;-18692.47;;;24.81;100.00
24746;BME280;12845;52.042;6.838;2023-06-26T04:56:36;-18689.78;;;24.70;100.00
24746;BME280;12845;52.042;6.838;2023-06-26T04:59:01;-18693.56;;;24.85;100.00
24746;BME280;12845;52.042;6.838;2023-06-26T05:01:27;-18690.44;;;24.73;100.00
24746;BME280;12845;52.042;6.838;2023-06-26T05:04:00;-18691.00;;;24.75;100.00
24746;BME280;12845;52.042;6.838;2023-06-26T05:06:25;-18689.22;;;24.68;100.00
24746;BME280;12845;52.042;6.838;2023-06-26T05:08:51;-18687.47;;;24.62;100.00
24746;BME280;12845;52.042;6.838;2023-06-26T05:11:16;-18694.09;;;24.87;100.00
24746;BME280;12845;52.042;6.838;2023-06-26T05:13:42;-18692.63;;;24.81;100.00
24746;BME280;12845;52.042;6.838;2023-06-26T05:16:08;-18689.78;;;24.70;100.00
24746;BME280;12845;52.042;6.838;2023-06-26T05:18:34;-18692.63;;;24.81;100.00
24746;BME280;12845;52.042;6.838;2023-06-26T05:21:00;-18694.50;;;24.88;100.00
24746;BME280;12845;52.042;6.838;2023-06-26T05:23:26;-18698.03;;;25.02;100.00
24746;BME280;12845;52.042;6.838;2023-06-26T05:25:52;-18696.94;;;24.97;100.00
24746;BME280;12845;52.042;6.838;2023-06-26T05:28:18;-18693.97;;;24.86;100.00
24746;BME280;12845;52.042;6.838;2023-06-26T05:30:44;-18697.09;;;24.98;100.00
24746;BME280;12845;52.042;6.838;2023-06-26T05:33:14;-18698.16;;;25.02;100.00
24746;BME280;12845;52.042;6.838;2023-06-26T05:35:40;-18697.63;;;25.00;100.00
24746;BME280;12845;52.042;6.838;2023-06-26T05:38:06;-18702.09;;;25.17;100.00
24746;BME280;12845;52.042;6.838;2023-06-26T05:40:31;-18700.06;;;25.09;100.00
24746;BME280;12845;52.042;6.838;2023-06-26T05:42:59;-18698.56;;;25.04;100.00
24746;BME280;12845;52.042;6.838;2023-06-26T05:45:24;-18696.53;;;24.96;100.00
24746;BME280;12845;52.042;6.838;2023-06-26T05:47:50;-18691.25;;;24.76;100.00
24746;BME280;12845;52.042;6.838;2023-06-26T05:50:17;-18694.09;;;24.87;100.00
24746;BME280;12845;52.042;6.838;2023-06-26T05:52:42;-18698.56;;;25.04;100.00
24746;BME280;12845;52.042;6.838;2023-06-26T05:55:09;-18693.69;;;24.85;100.00
24746;BME280;12845;52.042;6.838;2023-06-26T05:57:36;-18691.13;;;24.75;100.00
24746;BME280;12845;52.042;6.838;2023-06-26T06:00:02;-18689.09;;;24.68;100.00
24746;BME280;12845;52.042;6.838;2023-06-26T06:02:30;-18684.22;;;24.49;100.00
24746;BME280;12845;52.042;6.838;2023-06-26T06:04:56;-18687.75;;;24.63;100.00
24746;BME280;12845;52.042;6.838;2023-06-26T06:07:21;-18683.13;;;24.45;100.00
24746;BME280;12845;52.042;6.838;2023-06-26T06:09:47;-18684.50;;;24.50;100.00
24746;BME280;12845;52.042;6.838;2023-06-26T06:12:12;-18689.78;;;24.70;100.00
24746;BME280;12845;52.042;6.838;2023-06-26T06:14:37;-18688.56;;;24.66;100.00
24746;BME280;12845;52.042;6.838;2023-06-26T06:17:03;-18687.47;;;24.62;100.00
24746;BME280;12845;52.042;6.838;2023-06-26T06:19:28;-18691.13;;;24.75;100.00
24746;BME280;12845;52.042;6.838;2023-06-26T06:21:54;-18694.50;;;24.88;100.00
24746;BME280;12845;52.042;6.838;2023-06-26T06:24:19;-18691.25;;;24.76;100.00
24746;BME280;12845;52.042;6.838;2023-06-26T06:26:45;-18692.75;;;24.82;100.00
24746;BME280;12845;52.042;6.838;2023-06-26T06:29:10;-18690.44;;;24.73;100.00
24746;BME280;12845;52.042;6.838;2023-06-26T06:31:36;-18694.91;;;24.90;100.00
24746;BME280;12845;52.042;6.838;2023-06-26T06:37:40;-18701.00;;;25.13;100.00
24746;BME280;12845;52.042;6.838;2023-06-26T06:51:37;-18700.47;;;25.11;100.00
24746;BME280;12845;52.042;6.838;2023-06-26T06:54:02;-18706.03;;;25.32;100.00
24746;BME280;12845;52.042;6.838;2023-06-26T06:56:28;-18708.59;;;25.41;100.00
24746;BME280;12845;52.042;6.838;2023-06-26T06:58:53;-18709.00;;;25.43;100.00
24746;BME280;12845;52.042;6.838;2023-06-26T07:01:19;-18710.50;;;25.49;100.00
24746;BME280;12845;52.042;6.838;2023-06-26T07:03:44;-18705.47;;;25.30;100.00
24746;BME280;12845;52.042;6.838;2023-06-26T07:06:09;-18713.47;;;25.60;100.00
24746;BME280;12845;52.042;6.838;2023-06-26T07:08:35;-18715.63;;;25.68;100.00
24746;BME280;12845;52.042;6.838;2023-06-26T07:11:00;-18720.22;;;25.85;100.00
24746;BME280;12845;52.042;6.838;2023-06-26T07:13:26;-18717.13;;;25.74;100.00
24746;BME280;12845;52.042;6.838;2023-06-26T07:15:52;-18717.78;;;25.76;100.00
24746;BME280;12845;52.042;6.838;2023-06-26T07:18:17;-18715.75;;;25.69;100.00
24746;BME280;12845;52.042;6.838;2023-06-26T07:20:42;-18715.09;;;25.66;100.00
24746;BME280;12845;52.042;6.838;2023-06-26T07:23:08;-18718.47;;;25.79;100.00
24746;BME280;12845;52.042;6.838;2023-06-26T07:25:34;-18718.06;;;25.77;100.00
24746;BME280;12845;52.042;6.838;2023-06-26T07:27:59;-18714.69;;;25.64;100.00
24746;BME280;12845;52.042;6.838;2023-06-26T07:30:25;-18716.31;;;25.71;100.00
24746;BME280;12845;52.042;6.838;2023-06-26T07:32:50;-18714.41;;;25.63;100.00
24746;BME280;12845;52.042;6.838;2023-06-26T07:35:16;-18712.09;;;25.55;100.00
24746;BME280;12845;52.042;6.838;2023-06-26T07:37:42;-18718.06;;;25.77;100.00
24746;BME280;12845;52.042;6.838;2023-06-26T07:40:08;-18725.63;;;26.06;100.00
24746;BME280;12845;52.042;6.838;2023-06-26T07:42:33;-18727.00;;;26.11;100.00
24746;BME280;12845;52.042;6.838;2023-06-26T07:44:59;-18730.25;;;26.23;99.15
24746;BME280;12845;52.042;6.838;2023-06-26T07:47:24;-18731.31;;;26.27;100.00
24746;BME280;12845;52.042;6.838;2023-06-26T07:49:50;-18736.31;;;26.46;95.24
24746;BME280;12845;52.042;6.838;2023-06-26T07:52:15;-18733.63;;;26.36;91.32
24746;BME280;12845;52.042;6.838;2023-06-26T07:54:40;-18732.13;;;26.30;90.56
24746;BME280;12845;52.042;6.838;2023-06-26T07:57:06;-18731.03;;;26.26;90.57
24746;BME280;12845;52.042;6.838;2023-06-26T07:59:32;-18734.44;;;26.39;90.69
24746;BME280;12845;52.042;6.838;2023-06-26T08:01:58;-18731.03;;;26.26;91.97
24746;BME280;12845;52.042;6.838;2023-06-26T08:04:27;-18733.22;;;26.34;92.69
24746;BME280;12845;52.042;6.838;2023-06-26T08:06:55;-18732.13;;;26.30;91.77
24746;BME280;12845;52.042;6.838;2023-06-26T08:09:23;-18729.28;;;26.20;90.63
24746;BME280;12845;52.042;6.838;2023-06-26T08:11:49;-18731.47;;;26.28;89.06
24746;BME280;12845;52.042;6.838;2023-06-26T08:14:15;-18731.59;;;26.28;88.03
24746;BME280;12845;52.042;6.838;2023-06-26T08:16:41;-18733.22;;;26.34;85.26
24746;BME280;12845;52.042;6.838;2023-06-26T08:19:07;-18739.84;;;26.60;86.49
24746;BME280;12845;52.042;6.838;2023-06-26T08:21:33;-18742.00;;;26.68;85.15
24746;BME280;12845;52.042;6.838;2023-06-26T08:23:58;-18746.47;;;26.85;77.40
24746;BME280;12845;52.042;6.838;2023-06-26T08:26:24;-18741.59;;;26.66;76.57
24746;BME280;12845;52.042;6.838;2023-06-26T08:28:49;-18740.78;;;26.63;77.92
24746;BME280;12845;52.042;6.838;2023-06-26T08:31:16;-18738.09;;;26.53;78.26
24746;BME280;12845;52.042;6.838;2023-06-26T08:33:41;-18737.53;;;26.51;80.66
24746;BME280;12845;52.042;6.838;2023-06-26T08:36:06;-18744.31;;;26.76;82.53
24746;BME280;12845;52.042;6.838;2023-06-26T08:38:32;-18748.22;;;26.91;76.83
24746;BME280;12845;52.042;6.838;2023-06-26T08:40:58;-18746.31;;;26.84;73.77
24746;BME280;12845;52.042;6.838;2023-06-26T08:43:23;-18745.38;;;26.81;75.33
24746;BME280;12845;52.042;6.838;2023-06-26T08:45:49;-18747.28;;;26.88;72.34
24746;BME280;12845;52.042;6.838;2023-06-26T08:48:17;-18755.38;;;27.18;69.36
24746;BME280;12845;52.042;6.838;2023-06-26T08:50:43;-18750.38;;;26.99;68.26
24746;BME280;12845;52.042;6.838;2023-06-26T08:56:15;-18738.91;;;26.56;72.57
24746;BME280;12845;52.042;6.838;2023-06-26T08:58:42;-18743.09;;;26.72;73.16
24746;BME280;12845;52.042;6.838;2023-06-26T09:01:07;-18745.09;;;26.80;71.73
24746;BME280;12845;52.042;6.838;2023-06-26T09:03:33;-18738.09;;;26.53;72.82
24746;BME280;12845;52.042;6.838;2023-06-26T09:05:59;-18737.81;;;26.52;73.22
24746;BME280;12845;52.042;6.838;2023-06-26T09:08:25;-18735.78;;;26.44;72.74
24746;BME280;12845;52.042;6.838;2023-06-26T09:10:51;-18733.63;;;26.36;74.70
24746;BME280;12845;52.042;6.838;2023-06-26T09:13:18;-18739.31;;;26.58;74.22
24746;BME280;12845;52.042;6.838;2023-06-26T09:15:44;-18744.56;;;26.77;71.76
24746;BME280;12845;52.042;6.838;2023-06-26T09:18:10;-18743.22;;;26.72;70.86
24746;BME280;12845;52.042;6.838;2023-06-26T09:20:36;-18742.13;;;26.68;69.64
24746;BME280;12845;52.042;6.838;2023-06-26T09:23:03;-18745.66;;;26.82;68.90
24746;BME280;12845;52.042;6.838;2023-06-26T09:25:28;-18742.94;;;26.71;67.02
24746;BME280;12845;52.042;6.838;2023-06-26T09:27:55;-18742.69;;;26.70;66.33
24746;BME280;12845;52.042;6.838;2023-06-26T09:30:20;-18743.63;;;26.74;66.41
24746;BME280;12845;52.042;6.838;2023-06-26T09:32:46;-18744.69;;;26.78;65.68
24746;BME280;12845;52.042;6.838;2023-06-26T09:35:12;-18738.63;;;26.55;67.61
24746;BME280;12845;52.042;6.838;2023-06-26T09:37:38;-18740.66;;;26.63;67.84
24746;BME280;12845;52.042;6.838;2023-06-26T09:40:04;-18744.97;;;26.79;68.20
24746;BME280;12845;52.042;6.838;2023-06-26T09:42:33;-18748.75;;;26.93;65.20
24746;BME280;12845;52.042;6.838;2023-06-26T09:44:59;-18742.53;;;26.70;65.49
24746;BME280;12845;52.042;6.838;2023-06-26T09:47:24;-18740.91;;;26.64;63.76
24746;BME280;12845;52.042;6.838;2023-06-26T09:49:50;-18740.78;;;26.63;64.77
24746;BME280;12845;52.042;6.838;2023-06-26T09:52:18;-18739.31;;;26.58;63.82
24746;BME280;12845;52.042;6.838;2023-06-26T09:54:45;-18732.81;;;26.33;65.83
24746;BME280;12845;52.042;6.838;2023-06-26T09:57:15;-18730.38;;;26.24;61.93
24746;BME280;12845;52.042;6.838;2023-06-26T09:59:42;-18734.69;;;26.40;61.57
24746;BME280;12845;52.042;6.838;2023-06-26T10:02:10;-18741.59;;;26.66;62.61
24746;BME280;12845;52.042;6.838;2023-06-26T10:04:37;-18745.66;;;26.82;64.25
24746;BME280;12845;52.042;6.838;2023-06-26T10:07:05;-18744.69;;;26.78;61.53
24746;BME280;12845;52.042;6.838;2023-06-26T10:09:31;-18747.69;;;26.89;60.38
24746;BME280;12845;52.042;6.838;2023-06-26T10:12:03;-18742.69;;;26.70;57.02
24746;BME280;12845;52.042;6.838;2023-06-26T10:14:35;-18740.50;;;26.62;56.37
24746;BME280;12845;52.042;6.838;2023-06-26T10:17:07;-18744.31;;;26.76;56.51
24746;BME280;12845;52.042;6.838;2023-06-26T10:19:35;-18739.84;;;26.60;56.91
24746;BME280;12845;52.042;6.838;2023-06-26T10:22:03;-18742.94;;;26.71;57.43
24746;BME280;12845;52.042;6.838;2023-06-26T10:24:31;-18737.41;;;26.50;54.32
24746;BME280;12845;52.042;6.838;2023-06-26T10:27:14;-18742.13;;;26.68;56.34
24746;BME280;12845;52.042;6.838;2023-06-26T10:29:40;-18737.69;;;26.51;56.06
24746;BME280;12845;52.042;6.838;2023-06-26T10:32:06;-18744.69;;;26.78;57.19
24746;BME280;12845;52.042;6.838;2023-06-26T10:34:32;-18745.50;;;26.81;56.26
24746;BME280;12845;52.042;6.838;2023-06-26T10:36:59;-18750.25;;;26.99;55.26
24746;BME280;12845;52.042;6.838;2023-06-26T10:39:26;-18751.59;;;27.04;55.98
24746;BME280;12845;52.042;6.838;2023-06-26T10:41:54;-18761.06;;;27.40;56.36
24746;BME280;12845;52.042;6.838;2023-06-26T10:44:20;-18756.88;;;27.24;52.28
24746;BME280;12845;52.042;6.838;2023-06-26T10:46:56;-18754.84;;;27.16;51.25
24746;BME280;12845;52.042;6.838;2023-06-26T10:49:28;-18749.69;;;26.97;51.31
24746;BME280;12845;52.042;6.838;2023-06-26T10:51:54;-18748.47;;;26.92;49.21
24746;BME280;12845;52.042;6.838;2023-06-26T10:54:28;-18751.72;;;27.05;50.86
24746;BME280;12845;52.042;6.838;2023-06-26T10:56:55;-18752.41;;;27.07;51.47
24746;BME280;12845;52.042;6.838;2023-06-26T10:59:25;-18756.59;;;27.23;50.37
24746;BME280;12845;52.042;6.838;2023-06-26T11:01:57;-18760.50;;;27.38;49.96
24746;BME280;12845;52.042;6.838;2023-06-26T11:04:47;-18754.84;;;27.16;47.20
24746;BME280;12845;52.042;6.838;2023-06-26T11:07:24;-18755.38;;;27.18;48.20
24746;BME280;12845;52.042;6.838;2023-06-26T11:10:00;-18758.88;;;27.32;47.70
24746;BME280;12845;52.042;6.838;2023-06-26T11:12:42;-18757.13;;;27.25;45.01
24746;BME280;12845;52.042;6.838;2023-06-26T11:15:16;-18760.66;;;27.38;44.85
24746;BME280;12845;52.042;6.838;2023-06-26T11:17:42;-18770.38;;;27.75;44.70
24746;BME280;12845;52.042;6.838;2023-06-26T11:20:12;-18767.94;;;27.66;45.05
24746;BME280;12845;52.042;6.838;2023-06-26T11:22:40;-18774.28;;;27.90;45.11
24746;BME280;12845;52.042;6.838;2023-06-26T11:25:07;-18765.63;;;27.57;44.28
24746;BME280;12845;52.042;6.838;2023-06-26T11:27:42;-18769.81;;;27.73;43.34
24746;BME280;12845;52.042;6.838;2023-06-26T11:30:10;-18773.47;;;27.87;43.31
24746;BME280;12845;52.042;6.838;2023-06-26T11:32:39;-18770.63;;;27.76;43.42
24746;BME280;12845;52.042;6.838;2023-06-26T11:35:05;-18776.84;;;28.00;43.65
24746;BME280;12845;52.042;6.838;2023-06-26T11:37:31;-18781.16;;;28.16;41.57
24746;BME280;12845;52.042;6.838;2023-06-26T11:39:57;-18774.00;;;27.89;41.48
24746;BME280;12845;52.042;6.838;2023-06-26T11:42:23;-18769.81;;;27.73;40.94
24746;BME280;12845;52.042;6.838;2023-06-26T11:44:50;-18781.97;;;28.19;41.83
24746;BME280;12845;52.042;6.838;2023-06-26T11:47:17;-18782.38;;;28.21;42.58
24746;BME280;12845;52.042;6.838;2023-06-26T11:49:44;-18771.72;;;27.80;42.83
24746;BME280;12845;52.042;6.838;2023-06-26T11:52:10;-18766.44;;;27.60;42.06
24746;BME280;12845;52.042;6.838;2023-06-26T11:54:36;-18765.38;;;27.56;42.40
24746;BME280;12845;52.042;6.838;2023-06-26T11:57:03;-18764.97;;;27.55;42.30
24746;BME280;12845;52.042;6.838;2023-06-26T11:59:36;-18774.00;;;27.89;41.31
24746;BME280;12845;52.042;6.838;2023-06-26T12:02:07;-18779.94;;;28.11;38.94
24746;BME280;12845;52.042;6.838;2023-06-26T12:04:38;-18771.59;;;27.80;38.58
24746;BME280;12845;52.042;6.838;2023-06-26T12:07:06;-18770.22;;;27.75;39.08
24746;BME280;12845;52.042;6.838;2023-06-26T12:09:37;-18768.88;;;27.70;38.49
24746;BME280;12845;52.042;6.838;2023-06-26T12:12:03;-18777.66;;;28.03;38.80
24746;BME280;12845;52.042;6.838;2023-06-26T12:14:29;-18781.16;;;28.16;37.84
24746;BME280;12845;52.042;6.838;2023-06-26T12:16:55;-18785.06;;;28.31;37.08
24746;BME280;12845;52.042;6.838;2023-06-26T12:19:27;-18786.56;;;28.37;37.05
24746;BME280;12845;52.042;6.838;2023-06-26T12:21:52;-18786.00;;;28.34;37.08
24746;BME280;12845;52.042;6.838;2023-06-26T12:24:22;-18784.94;;;28.30;35.90
24746;BME280;12845;52.042;6.838;2023-06-26T12:26:56;-18789.00;;;28.46;37.05
24746;BME280;12845;52.042;6.838;2023-06-26T12:29:29;-18783.44;;;28.25;37.38
24746;BME280;12845;52.042;6.838;2023-06-26T12:31:56;-18782.25;;;28.20;36.02
24746;BME280;12845;52.042;6.838;2023-06-26T12:34:31;-18775.34;;;27.94;37.05
24746;BME280;12845;52.042;6.838;2023-06-26T12:37:03;-18778.47;;;28.06;37.54
24746;BME280;12845;52.042;6.838;2023-06-26T12:39:29;-18771.44;;;27.79;38.02
24746;BME280;12845;52.042;6.838;2023-06-26T12:41:57;-18776.16;;;27.97;38.18
24746;BME280;12845;52.042;6.838;2023-06-26T12:44:29;-18782.09;;;28.20;38.34
24746;BME280;12845;52.042;6.838;2023-06-26T12:46:58;-18789.13;;;28.46;37.92
24746;BME280;12845;52.042;6.838;2023-06-26T12:49:37;-18786.81;;;28.38;36.96
24746;BME280;12845;52.042;6.838;2023-06-26T12:52:07;-18788.84;;;28.45;37.05
24746;BME280;12845;52.042;6.838;2023-06-26T12:54:38;-18787.63;;;28.41;36.08
24746;BME280;12845;52.042;6.838;2023-06-26T12:57:04;-18787.75;;;28.41;35.91
24746;BME280;12845;52.042;6.838;2023-06-26T12:59:30;-18792.22;;;28.58;35.93
24746;BME280;12845;52.042;6.838;2023-06-26T13:01:56;-18788.59;;;28.44;35.37
24746;BME280;12845;52.042;6.838;2023-06-26T13:04:22;-18788.84;;;28.45;35.05
24746;BME280;12845;52.042;6.838;2023-06-26T13:06:47;-18789.94;;;28.49;34.65